createdAt,value
2016-04-15T00:00:19.191Z,1000.87
2016-04-15T00:01:19.226Z,1000.89
2016-04-15T00:02:19.259Z,1000.85
2016-04-15T00:03:19.309Z,1000.87
2016-04-15T00:04:19.327Z,1000.83
2016-04-15T00:05:19.376Z,1000.9
2016-04-15T00:06:19.410Z,1000.85
2016-04-15T00:07:19.429Z,1000.83
2016-04-15T00:08:19.478Z,1000.79
2016-04-15T00:09:19.512Z,1000.81
2016-04-15T00:10:19.546Z,1000.76
2016-04-15T00:11:19.581Z,1000.73
2016-04-15T00:12:19.615Z,1000.75
2016-04-15T00:13:19.664Z,1000.7
2016-04-15T00:14:19.698Z,1000.69
2016-04-15T00:15:19.731Z,1000.68
2016-04-15T00:16:19.766Z,1000.66
2016-04-15T00:17:19.800Z,1000.66
2016-04-15T00:18:19.833Z,1000.64
2016-04-15T00:19:19.867Z,1000.67
2016-04-15T00:20:19.901Z,1000.62
2016-04-15T00:21:19.935Z,1000.63
2016-04-15T00:22:19.969Z,1000.62
2016-04-15T00:23:20.002Z,1000.59
2016-04-15T00:24:20.037Z,1000.62
2016-04-15T00:25:20.086Z,1000.55
2016-04-15T00:26:20.121Z,1000.56
2016-04-15T00:27:20.155Z,1000.55
2016-04-15T00:28:20.188Z,1000.54
2016-04-15T00:29:20.222Z,1000.49
2016-04-15T00:30:20.256Z,1000.49
2016-04-15T00:31:20.290Z,1000.5
2016-04-15T00:32:20.341Z,1000.44
2016-04-15T00:33:20.359Z,1000.4
2016-04-15T00:34:20.393Z,1000.39
2016-04-15T00:35:20.450Z,1000.36
2016-04-15T00:36:20.484Z,1000.36
2016-04-15T00:37:20.502Z,1000.31
2016-04-15T00:38:20.535Z,1000.29
2016-04-15T00:39:20.570Z,1000.29
2016-04-15T00:40:20.604Z,1000.28
2016-04-15T00:41:20.637Z,1000.28
2016-04-15T00:42:20.687Z,1000.24
2016-04-15T00:43:20.720Z,1000.22
2016-04-15T00:44:20.755Z,1000.22
2016-04-15T00:45:20.789Z,1000.19
2016-04-15T00:46:20.823Z,1000.17
2016-04-15T00:47:20.857Z,1000.13
2016-04-15T00:48:20.907Z,1000.14
2016-04-15T00:49:20.925Z,1000.09
2016-04-15T00:50:20.975Z,1000.08
2016-04-15T00:51:20.993Z,1000.05
2016-04-15T00:52:21.042Z,1000.02
2016-04-15T00:53:21.076Z,1000.05
2016-04-15T00:54:21.110Z,1000.03
2016-04-15T00:55:21.144Z,1000.01
2016-04-15T00:56:21.177Z,999.98
2016-04-15T00:57:21.211Z,999.91
2016-04-15T00:58:21.246Z,999.89
2016-04-15T00:59:21.295Z,999.87
2016-04-15T01:00:21.329Z,999.88
2016-04-15T01:01:21.347Z,999.84
2016-04-15T01:02:21.397Z,999.85
2016-04-15T01:03:21.432Z,999.83
2016-04-15T01:04:21.465Z,999.83
2016-04-15T01:05:21.499Z,999.82
2016-04-15T01:06:21.532Z,999.81
2016-04-15T01:07:21.567Z,999.79
2016-04-15T01:08:21.601Z,999.8
2016-04-15T01:09:21.635Z,999.75
2016-04-15T01:10:21.668Z,999.75
2016-04-15T01:11:21.718Z,999.74
2016-04-15T01:12:21.736Z,999.75
2016-04-15T01:13:21.770Z,999.69
2016-04-15T01:14:21.820Z,999.64
2016-04-15T01:15:21.853Z,999.68
2016-04-15T01:16:21.888Z,999.68
2016-04-15T01:17:21.922Z,999.63
2016-04-15T01:18:21.956Z,999.66
2016-04-15T01:19:21.990Z,999.62
2016-04-15T01:20:22.023Z,999.67
2016-04-15T01:21:22.058Z,999.65
2016-04-15T01:22:22.091Z,999.64
2016-04-15T01:23:22.125Z,999.61
2016-04-15T01:24:22.175Z,999.58
2016-04-15T01:25:22.193Z,999.59
2016-04-15T01:26:22.244Z,999.55
2016-04-15T01:27:22.277Z,999.56
2016-04-15T01:28:22.311Z,999.55
2016-04-15T01:29:22.345Z,999.56
2016-04-15T01:30:22.379Z,999.56
2016-04-15T01:31:22.413Z,999.5
2016-04-15T01:32:22.446Z,999.47
2016-04-15T01:33:22.480Z,999.42
2016-04-15T01:34:22.515Z,999.39
2016-04-15T01:35:22.549Z,999.36
2016-04-15T01:36:22.598Z,999.39
2016-04-15T01:37:22.616Z,999.37
2016-04-15T01:38:22.665Z,999.33
2016-04-15T01:39:22.699Z,999.36
2016-04-15T01:40:22.734Z,999.31
2016-04-15T01:41:22.783Z,999.3
2016-04-15T01:42:22.802Z,999.25
2016-04-15T01:43:22.835Z,999.26
2016-04-15T01:44:22.870Z,999.24
2016-04-15T01:45:22.904Z,999.2
2016-04-15T01:46:22.937Z,999.16
2016-04-15T01:47:22.971Z,999.16
2016-04-15T01:48:23.020Z,999.15
2016-04-15T01:49:23.055Z,999.15
2016-04-15T01:50:23.089Z,999.12
2016-04-15T01:51:23.122Z,999.1
2016-04-15T01:52:23.156Z,999.08
2016-04-15T01:53:23.190Z,999.07
2016-04-15T01:54:23.224Z,999.04
2016-04-15T01:55:23.258Z,999.02
2016-04-15T01:56:23.291Z,999
2016-04-15T01:57:23.327Z,999.01
2016-04-15T01:58:23.375Z,998.97
2016-04-15T01:59:23.394Z,998.97
2016-04-15T02:00:23.444Z,998.95
2016-04-15T02:01:23.478Z,998.96
2016-04-15T02:02:23.511Z,998.92
2016-04-15T02:03:23.546Z,998.89
2016-04-15T02:04:23.579Z,998.89
2016-04-15T02:05:23.613Z,998.91
2016-04-15T02:06:23.647Z,998.86
2016-04-15T02:07:23.682Z,998.87
2016-04-15T02:08:23.716Z,998.86
2016-04-15T02:09:23.749Z,998.84
2016-04-15T02:10:23.783Z,998.82
2016-04-15T02:11:23.818Z,998.79
2016-04-15T02:12:23.851Z,998.81
2016-04-15T02:13:23.901Z,998.79
2016-04-15T02:14:23.934Z,998.76
2016-04-15T02:15:23.968Z,998.77
2016-04-15T02:16:24.003Z,998.74
2016-04-15T02:17:24.036Z,998.73
2016-04-15T02:18:24.070Z,998.72
2016-04-15T02:19:24.103Z,998.67
2016-04-15T02:20:24.138Z,998.71
2016-04-15T02:21:24.172Z,998.66
2016-04-15T02:22:24.221Z,998.66
2016-04-15T02:23:24.240Z,998.69
2016-04-15T02:24:24.274Z,998.7
2016-04-15T02:25:24.308Z,998.78
2016-04-15T02:26:24.342Z,998.77
2016-04-15T02:27:24.391Z,998.79
2016-04-15T02:28:24.425Z,998.81
2016-04-15T02:29:24.459Z,998.78
2016-04-15T02:30:24.493Z,998.8
2016-04-15T02:31:24.527Z,998.77
2016-04-15T02:32:24.561Z,998.77
2016-04-15T02:33:24.594Z,998.75
2016-04-15T02:34:24.629Z,998.8
2016-04-15T02:35:24.678Z,998.82
2016-04-15T02:36:24.696Z,998.83
2016-04-15T02:37:24.730Z,998.76
2016-04-15T02:38:24.765Z,998.75
2016-04-15T02:39:24.815Z,998.83
2016-04-15T02:40:24.848Z,998.82
2016-04-15T02:41:24.882Z,998.8
2016-04-15T02:42:24.916Z,998.83
2016-04-15T02:43:24.950Z,998.77
2016-04-15T02:44:24.984Z,998.78
2016-04-15T02:45:25.017Z,998.74
2016-04-15T02:46:25.051Z,998.75
2016-04-15T02:47:25.086Z,998.75
2016-04-15T02:48:25.120Z,998.74
2016-04-15T02:49:25.154Z,998.72
2016-04-15T02:50:25.204Z,998.78
2016-04-15T02:51:25.237Z,998.75
2016-04-15T02:52:25.271Z,998.71
2016-04-15T02:53:25.306Z,998.73
2016-04-15T02:54:25.339Z,998.72
2016-04-15T02:55:25.373Z,998.7
2016-04-15T02:56:25.406Z,998.75
2016-04-15T02:57:25.441Z,998.71
2016-04-15T02:58:25.475Z,998.7
2016-04-15T02:59:25.508Z,998.64
2016-04-15T03:00:25.542Z,998.65
2016-04-15T03:01:25.592Z,998.68
2016-04-15T03:02:25.611Z,998.67
2016-04-15T03:03:25.644Z,998.68
2016-04-15T03:04:25.694Z,998.62
2016-04-15T03:05:25.728Z,998.64
2016-04-15T03:06:25.762Z,998.64
2016-04-15T03:07:25.796Z,998.66
2016-04-15T03:08:25.830Z,998.65
2016-04-15T03:09:25.863Z,998.62
2016-04-15T03:10:25.898Z,998.59
2016-04-15T03:11:25.931Z,998.63
2016-04-15T03:12:25.965Z,998.6
2016-04-15T03:13:26.015Z,998.55
2016-04-15T03:14:26.048Z,998.55
2016-04-15T03:15:26.082Z,998.5
2016-04-15T03:16:26.117Z,998.55
2016-04-15T03:17:26.150Z,998.5
2016-04-15T03:18:26.184Z,998.5
2016-04-15T03:19:26.218Z,998.51
2016-04-15T03:20:26.253Z,998.46
2016-04-15T03:21:26.287Z,998.51
2016-04-15T03:22:26.320Z,998.46
2016-04-15T03:23:26.354Z,998.42
2016-04-15T03:24:26.404Z,998.43
2016-04-15T03:25:26.438Z,998.4
2016-04-15T03:26:26.472Z,998.37
2016-04-15T03:27:26.489Z,998.4
2016-04-15T03:28:26.539Z,998.37
2016-04-15T03:29:26.574Z,998.37
2016-04-15T03:30:26.608Z,998.35
2016-04-15T03:31:26.642Z,998.31
2016-04-15T03:32:26.675Z,998.31
2016-04-15T03:33:26.710Z,998.25
2016-04-15T03:34:26.744Z,998.22
2016-04-15T03:35:26.777Z,998.24
2016-04-15T03:36:26.811Z,998.22
2016-04-15T03:37:26.845Z,998.2
2016-04-15T03:38:26.879Z,998.2
2016-04-15T03:39:26.913Z,998.16
2016-04-15T03:40:26.947Z,998.17
2016-04-15T03:41:26.996Z,998.12
2016-04-15T03:42:27.030Z,998.12
2016-04-15T03:43:27.065Z,998.14
2016-04-15T03:44:27.098Z,998.09
2016-04-15T03:45:27.132Z,998.08
2016-04-15T03:46:27.166Z,998.02
2016-04-15T03:47:27.201Z,998
2016-04-15T03:48:27.234Z,998
2016-04-15T03:49:27.268Z,997.96
2016-04-15T03:50:27.301Z,997.89
2016-04-15T03:51:27.351Z,997.9
2016-04-15T03:52:27.386Z,997.86
2016-04-15T03:53:27.419Z,997.82
2016-04-15T03:54:27.453Z,997.82
2016-04-15T03:55:27.487Z,997.79
2016-04-15T03:56:27.521Z,997.78
2016-04-15T03:57:27.555Z,997.77
2016-04-15T03:58:27.588Z,997.77
2016-04-15T03:59:27.622Z,997.74
2016-04-15T04:00:27.672Z,997.72
2016-04-15T04:01:27.691Z,997.71
2016-04-15T04:02:27.725Z,997.71
2016-04-15T04:03:27.758Z,997.7
2016-04-15T04:04:27.793Z,997.71
2016-04-15T04:05:27.842Z,997.66
2016-04-15T04:06:27.860Z,997.67
2016-04-15T04:07:27.910Z,997.65
2016-04-15T04:08:27.944Z,997.67
2016-04-15T04:09:27.977Z,997.62
2016-04-15T04:10:28.012Z,997.6
2016-04-15T04:11:28.046Z,997.6
2016-04-15T04:12:28.080Z,997.58
2016-04-15T04:13:28.113Z,997.57
2016-04-15T04:14:28.148Z,997.54
2016-04-15T04:15:28.198Z,997.52
2016-04-15T04:16:28.231Z,997.49
2016-04-15T04:17:28.249Z,997.49
2016-04-15T04:18:28.299Z,997.47
2016-04-15T04:19:28.333Z,997.42
2016-04-15T04:20:28.367Z,997.42
2016-04-15T04:21:28.401Z,997.42
2016-04-15T04:22:28.434Z,997.37
2016-04-15T04:23:28.469Z,997.37
2016-04-15T04:24:28.502Z,997.3
2016-04-15T04:25:28.552Z,997.36
2016-04-15T04:26:28.570Z,997.3
2016-04-15T04:27:28.605Z,997.28
2016-04-15T04:28:28.639Z,997.24
2016-04-15T04:29:28.673Z,997.23
2016-04-15T04:30:28.847Z,997.24
2016-04-15T04:31:28.756Z,997.15
2016-04-15T04:32:28.790Z,997.14
2016-04-15T04:33:28.824Z,997.17
2016-04-15T04:34:28.858Z,997.11
2016-04-15T04:35:28.891Z,997.13
2016-04-15T04:36:28.925Z,997.09
2016-04-15T04:37:28.960Z,997.09
2016-04-15T04:38:28.993Z,997.05
2016-04-15T04:39:29.027Z,997.08
2016-04-15T04:40:29.060Z,997.05
2016-04-15T04:41:29.095Z,997.07
2016-04-15T04:42:29.145Z,997.04
2016-04-15T04:43:29.179Z,997.02
2016-04-15T04:44:29.213Z,997.01
2016-04-15T04:45:29.262Z,997
2016-04-15T04:46:29.281Z,996.96
2016-04-15T04:47:29.315Z,996.93
2016-04-15T04:48:29.348Z,996.9
2016-04-15T04:49:29.382Z,996.89
2016-04-15T04:50:29.416Z,996.81
2016-04-15T04:51:29.455Z,996.79
2016-04-15T04:52:29.485Z,996.76
2016-04-15T04:53:29.516Z,996.75
2016-04-15T04:54:29.581Z,996.75
2016-04-15T04:55:29.589Z,996.74
2016-04-15T04:56:29.639Z,996.74
2016-04-15T04:57:29.672Z,996.78
2016-04-15T04:58:29.706Z,996.75
2016-04-15T04:59:29.740Z,996.75
2016-04-15T05:00:29.775Z,996.8
2016-04-15T05:01:29.808Z,996.75
2016-04-15T05:02:29.842Z,996.78
2016-04-15T05:03:29.876Z,996.76
2016-04-15T05:04:29.910Z,996.78
2016-04-15T05:05:29.944Z,996.76
2016-04-15T05:06:29.977Z,996.76
2016-04-15T05:07:30.027Z,996.78
2016-04-15T05:08:30.061Z,996.78
2016-04-15T05:09:30.095Z,996.75
2016-04-15T05:10:30.130Z,996.76
2016-04-15T05:11:30.163Z,996.72
2016-04-15T05:12:30.197Z,996.72
2016-04-15T05:13:30.232Z,996.75
2016-04-15T05:14:30.265Z,996.7
2016-04-15T05:15:30.315Z,996.72
2016-04-15T05:16:30.349Z,996.66
2016-04-15T05:17:30.367Z,996.69
2016-04-15T05:18:30.401Z,996.66
2016-04-15T05:19:30.434Z,996.68
2016-04-15T05:20:30.484Z,996.68
2016-04-15T05:21:30.518Z,996.61
2016-04-15T05:22:30.551Z,996.65
2016-04-15T05:23:30.586Z,996.64
2016-04-15T05:24:30.620Z,996.59
2016-04-15T05:25:30.653Z,996.59
2016-04-15T05:26:30.687Z,996.55
2016-04-15T05:27:30.737Z,996.56
2016-04-15T05:28:30.756Z,996.54
2016-04-15T05:29:30.790Z,996.49
2016-04-15T05:30:30.823Z,996.46
2016-04-15T05:31:30.873Z,996.41
2016-04-15T05:32:30.891Z,996.38
2016-04-15T05:33:30.941Z,996.38
2016-04-15T05:34:30.975Z,996.39
2016-04-15T05:35:31.008Z,996.36
2016-04-15T05:36:31.044Z,996.4
2016-04-15T05:37:31.077Z,996.4
2016-04-15T05:38:31.111Z,996.41
2016-04-15T05:39:31.145Z,996.4
2016-04-15T05:40:31.179Z,996.41
2016-04-15T05:41:31.213Z,996.4
2016-04-15T05:42:31.262Z,996.4
2016-04-15T05:43:31.296Z,996.36
2016-04-15T05:44:31.330Z,996.38
2016-04-15T05:45:31.363Z,996.42
2016-04-15T05:46:31.398Z,996.35
2016-04-15T05:47:31.432Z,996.32
2016-04-15T05:48:31.465Z,996.31
2016-04-15T05:49:31.531Z,996.28
2016-04-15T05:50:31.534Z,996.33
2016-04-15T05:51:31.567Z,996.28
2016-04-15T05:52:31.602Z,996.34
2016-04-15T05:53:31.651Z,996.34
2016-04-15T05:54:31.685Z,996.32
2016-04-15T05:55:31.704Z,996.32
2016-04-15T05:56:31.737Z,996.3
2016-04-15T05:57:31.771Z,996.26
2016-04-15T05:58:31.820Z,996.31
2016-04-15T05:59:31.855Z,996.27
2016-04-15T06:00:31.889Z,996.25
2016-04-15T06:01:31.922Z,996.28
2016-04-15T06:02:31.956Z,996.24
2016-04-15T06:03:31.990Z,996.21
2016-04-15T06:04:32.024Z,996.22
2016-04-15T06:05:32.058Z,996.19
2016-04-15T06:06:32.091Z,996.14
2016-04-15T06:07:32.126Z,996.11
2016-04-15T06:08:32.160Z,996.1
2016-04-15T06:09:32.210Z,996.09
2016-04-15T06:10:32.244Z,996.06
2016-04-15T06:11:32.278Z,996.08
2016-04-15T06:12:32.311Z,996.09
2016-04-15T06:13:32.346Z,996.1
2016-04-15T06:14:32.379Z,996.1
2016-04-15T06:15:32.413Z,996.08
2016-04-15T06:16:32.447Z,996.06
2016-04-15T06:17:32.481Z,996.09
2016-04-15T06:18:32.515Z,996.1
2016-04-15T06:19:32.565Z,996.1
2016-04-15T06:20:32.599Z,996.04
2016-04-15T06:21:32.638Z,996.05
2016-04-15T06:22:32.658Z,996.06
2016-04-15T06:23:32.692Z,996.06
2016-04-15T06:24:32.742Z,996
2016-04-15T06:25:32.775Z,995.97
2016-04-15T06:26:32.809Z,995.99
2016-04-15T06:27:32.832Z,995.96
2016-04-15T06:28:32.882Z,995.95
2016-04-15T06:29:32.915Z,995.95
2016-04-15T06:30:32.949Z,995.92
2016-04-15T06:31:32.983Z,995.91
2016-04-15T06:32:33.018Z,995.91
2016-04-15T06:33:33.052Z,995.96
2016-04-15T06:34:33.086Z,995.95
2016-04-15T06:35:33.119Z,995.97
2016-04-15T06:36:33.154Z,995.93
2016-04-15T06:37:33.188Z,995.92
2016-04-15T06:38:33.237Z,995.85
2016-04-15T06:39:33.271Z,995.83
2016-04-15T06:40:33.304Z,995.92
2016-04-15T06:41:33.339Z,995.89
2016-04-15T06:42:33.373Z,995.9
2016-04-15T06:43:33.406Z,995.89
2016-04-15T06:44:33.440Z,995.89
2016-04-15T06:45:33.474Z,995.84
2016-04-15T06:46:33.508Z,995.88
2016-04-15T06:47:33.558Z,995.9
2016-04-15T06:48:33.591Z,995.87
2016-04-15T06:49:33.626Z,995.91
2016-04-15T06:50:33.659Z,995.93
2016-04-15T06:51:33.694Z,995.91
2016-04-15T06:52:33.728Z,995.91
2016-04-15T06:53:33.761Z,995.88
2016-04-15T06:54:33.795Z,995.87
2016-04-15T06:55:33.829Z,995.86
2016-04-15T06:56:33.863Z,995.82
2016-04-15T06:57:33.897Z,995.79
2016-04-15T06:58:33.931Z,995.82
2016-04-15T06:59:33.966Z,995.86
2016-04-15T07:00:34.000Z,995.83
2016-04-15T07:01:34.033Z,995.83
2016-04-15T07:02:34.067Z,995.88
2016-04-15T07:03:34.116Z,995.81
2016-04-15T07:04:34.151Z,995.8
2016-04-15T07:05:34.185Z,995.84
2016-04-15T07:06:34.218Z,995.76
2016-04-15T07:07:34.252Z,995.78
2016-04-15T07:08:34.287Z,995.75
2016-04-15T07:09:34.320Z,995.77
2016-04-15T07:10:34.354Z,995.79
2016-04-15T07:11:34.387Z,995.8
2016-04-15T07:12:34.422Z,995.8
2016-04-15T07:13:34.456Z,995.71
2016-04-15T07:14:34.506Z,995.73
2016-04-15T07:15:34.540Z,995.71
2016-04-15T07:16:34.558Z,995.75
2016-04-15T07:17:34.607Z,995.78
2016-04-15T07:18:34.642Z,995.75
2016-04-15T07:19:34.676Z,995.71
2016-04-15T07:20:34.709Z,995.72
2016-04-15T07:21:34.747Z,995.66
2016-04-15T07:22:34.782Z,995.62
2016-04-15T07:23:34.816Z,995.62
2016-04-15T07:24:34.865Z,995.65
2016-04-15T07:25:34.883Z,995.62
2016-04-15T07:26:34.917Z,995.64
2016-04-15T07:27:34.956Z,995.66
2016-04-15T07:28:34.991Z,995.65
2016-04-15T07:29:35.024Z,995.58
2016-04-15T07:30:35.074Z,995.58
2016-04-15T07:31:35.093Z,995.61
2016-04-15T07:32:35.126Z,995.62
2016-04-15T07:33:35.160Z,995.6
2016-04-15T07:34:35.194Z,995.6
2016-04-15T07:35:35.243Z,995.57
2016-04-15T07:36:35.278Z,995.58
2016-04-15T07:37:35.311Z,995.6
2016-04-15T07:38:35.345Z,995.6
2016-04-15T07:39:35.379Z,995.58
2016-04-15T07:40:35.413Z,995.54
2016-04-15T07:41:35.448Z,995.58
2016-04-15T07:42:35.497Z,995.58
2016-04-15T07:43:35.515Z,995.59
2016-04-15T07:44:35.550Z,995.56
2016-04-15T07:45:35.583Z,995.56
2016-04-15T07:46:35.633Z,995.54
2016-04-15T07:47:35.666Z,995.55
2016-04-15T07:48:35.700Z,995.53
2016-04-15T07:49:35.735Z,995.52
2016-04-15T07:50:35.768Z,995.53
2016-04-15T07:51:35.802Z,995.53
2016-04-15T07:52:35.835Z,995.51
2016-04-15T07:53:35.870Z,995.52
2016-04-15T07:54:35.904Z,995.54
2016-04-15T07:55:35.953Z,995.49
2016-04-15T07:56:35.988Z,995.51
2016-04-15T07:57:36.021Z,995.48
2016-04-15T07:58:36.055Z,995.47
2016-04-15T07:59:36.089Z,995.48
2016-04-15T08:00:36.123Z,995.49
2016-04-15T08:01:36.157Z,995.52
2016-04-15T08:02:36.206Z,995.47
2016-04-15T08:03:36.240Z,995.53
2016-04-15T08:04:36.275Z,995.49
2016-04-15T08:05:36.309Z,995.47
2016-04-15T08:06:36.343Z,995.5
2016-04-15T08:07:36.377Z,995.51
2016-04-15T08:08:36.411Z,995.5
2016-04-15T08:09:36.445Z,995.55
2016-04-15T08:10:36.478Z,995.53
2016-04-15T08:11:36.512Z,995.57
2016-04-15T08:12:36.562Z,995.56
2016-04-15T08:13:36.595Z,995.54
2016-04-15T08:14:36.630Z,995.55
2016-04-15T08:15:36.663Z,995.56
2016-04-15T08:16:36.698Z,995.54
2016-04-15T08:17:36.731Z,995.56
2016-04-15T08:18:36.781Z,995.57
2016-04-15T08:19:36.800Z,995.58
2016-04-15T08:20:36.849Z,995.53
2016-04-15T08:21:36.873Z,995.59
2016-04-15T08:22:36.923Z,995.54
2016-04-15T08:23:36.956Z,995.53
2016-04-15T08:24:36.991Z,995.54
2016-04-15T08:25:37.024Z,995.55
2016-04-15T08:26:37.058Z,995.62
2016-04-15T08:27:37.092Z,995.53
2016-04-15T08:28:37.141Z,995.59
2016-04-15T08:29:37.176Z,995.53
2016-04-15T08:30:37.210Z,995.55
2016-04-15T08:31:37.249Z,995.54
2016-04-15T08:32:37.325Z,995.56
2016-04-15T08:33:37.401Z,995.51
2016-04-15T08:34:37.478Z,995.51
2016-04-15T08:35:37.571Z,995.55
2016-04-15T08:36:37.644Z,995.48
2016-04-15T08:37:37.693Z,995.46
2016-04-15T08:38:37.742Z,995.5
2016-04-15T08:39:37.792Z,995.5
2016-04-15T08:40:37.841Z,995.5
2016-04-15T08:41:37.889Z,995.49
2016-04-15T08:42:37.928Z,995.41
2016-04-15T08:43:37.983Z,995.38
2016-04-15T08:44:38.023Z,995.46
2016-04-15T08:45:38.078Z,995.37
2016-04-15T08:46:38.101Z,995.42
2016-04-15T08:47:38.137Z,995.42
2016-04-15T08:48:38.188Z,995.43
2016-04-15T08:49:38.240Z,995.45
2016-04-15T08:50:38.260Z,995.48
2016-04-15T08:51:38.296Z,995.37
2016-04-15T08:52:38.347Z,995.38
2016-04-15T08:53:38.381Z,995.38
2016-04-15T08:54:38.416Z,995.4
2016-04-15T08:55:38.466Z,995.43
2016-04-15T08:56:38.500Z,995.4
2016-04-15T08:57:38.519Z,995.4
2016-04-15T08:58:38.569Z,995.34
2016-04-15T08:59:38.604Z,995.43
2016-04-15T09:00:38.637Z,995.33
2016-04-15T09:01:38.672Z,995.31
2016-04-15T09:02:38.706Z,995.3
2016-04-15T09:03:38.740Z,995.31
2016-04-15T09:04:38.774Z,995.24
2016-04-15T09:05:38.824Z,995.31
2016-04-15T09:06:38.857Z,995.23
2016-04-15T09:07:38.892Z,995.2
2016-04-15T09:08:38.925Z,995.18
2016-04-15T09:09:38.975Z,995.23
2016-04-15T09:10:39.009Z,995.23
2016-04-15T09:11:39.042Z,995.26
2016-04-15T09:12:39.077Z,995.29
2016-04-15T09:13:39.110Z,995.25
2016-04-15T09:14:39.144Z,995.24
2016-04-15T09:15:39.178Z,995.22
2016-04-15T09:16:39.244Z,995.23
2016-04-15T09:17:39.262Z,995.22
2016-04-15T09:18:39.296Z,995.14
2016-04-15T09:19:39.330Z,995.14
2016-04-15T09:20:39.379Z,995.23
2016-04-15T09:21:39.413Z,995.13
2016-04-15T09:22:39.447Z,995.06
2016-04-15T09:23:39.482Z,995.15
2016-04-15T09:24:39.530Z,995.17
2016-04-15T09:25:39.566Z,995.18
2016-04-15T09:26:39.599Z,995.17
2016-04-15T09:27:40.446Z,995.16
2016-04-15T09:28:39.979Z,995.09
2016-04-15T09:29:40.216Z,995.13
2016-04-15T09:30:40.594Z,995.19
2016-04-15T09:31:40.143Z,995.15
2016-04-15T09:32:40.287Z,995.24
2016-04-15T09:33:39.867Z,995.2
2016-04-15T09:34:39.901Z,995.26
2016-04-15T09:35:39.935Z,995.21
2016-04-15T09:36:39.985Z,995.14
2016-04-15T09:37:40.020Z,995.22
2016-04-15T09:38:40.053Z,995.13
2016-04-15T09:39:40.087Z,995.19
2016-04-15T09:40:40.136Z,995.11
2016-04-15T09:41:40.170Z,995.23
2016-04-15T09:42:40.204Z,995.17
2016-04-15T09:43:40.238Z,995.16
2016-04-15T09:44:40.272Z,995.09
2016-04-15T09:45:40.321Z,995.15
2016-04-15T09:46:40.355Z,995.14
2016-04-15T09:47:40.405Z,995.27
2016-04-15T09:48:40.439Z,995.22
2016-04-15T09:49:40.473Z,995.26
2016-04-15T09:50:40.507Z,995.32
2016-04-15T09:51:40.541Z,995.25
2016-04-15T09:52:40.574Z,995.29
2016-04-15T09:53:40.624Z,995.29
2016-04-15T09:54:40.658Z,995.32
2016-04-15T09:55:40.693Z,995.41
2016-04-15T09:56:40.727Z,995.41
2016-04-15T09:57:40.777Z,995.53
2016-04-15T09:58:40.810Z,995.53
2016-04-15T09:59:40.844Z,995.36
2016-04-15T10:00:40.877Z,995.44
2016-04-15T10:01:40.927Z,995.47
2016-04-15T10:02:40.945Z,995.43
2016-04-15T10:03:40.995Z,995.42
2016-04-15T10:04:41.045Z,995.46
2016-04-15T10:05:41.062Z,995.45
2016-04-15T10:06:41.112Z,995.56
2016-04-15T10:07:41.146Z,995.43
2016-04-15T10:08:41.181Z,995.45
2016-04-15T10:09:41.215Z,995.41
2016-04-15T10:10:41.248Z,995.42
2016-04-15T10:11:41.282Z,995.45
2016-04-15T10:12:41.331Z,995.44
2016-04-15T10:13:41.366Z,995.46
2016-04-15T10:14:41.400Z,995.46
2016-04-15T10:15:41.449Z,995.44
2016-04-15T10:16:41.499Z,995.42
2016-04-15T10:17:41.516Z,995.51
2016-04-15T10:18:41.566Z,995.42
2016-04-15T10:19:41.585Z,995.38
2016-04-15T10:20:41.619Z,995.42
2016-04-15T10:21:41.653Z,995.44
2016-04-15T10:22:41.702Z,995.42
2016-04-15T10:23:41.736Z,995.43
2016-04-15T10:24:41.770Z,995.42
2016-04-15T10:25:41.804Z,995.44
2016-04-15T10:26:41.854Z,995.41
2016-04-15T10:27:41.888Z,995.42
2016-04-15T10:28:41.922Z,995.41
2016-04-15T10:29:41.956Z,995.49
2016-04-15T10:30:41.990Z,995.44
2016-04-15T10:31:42.024Z,995.5
2016-04-15T10:32:42.073Z,995.39
2016-04-15T10:33:42.107Z,995.46
2016-04-15T10:34:42.140Z,995.42
2016-04-15T10:35:42.175Z,995.41
2016-04-15T10:36:42.256Z,995.4
2016-04-15T10:37:42.258Z,995.44
2016-04-15T10:38:42.293Z,995.45
2016-04-15T10:39:42.326Z,995.47
2016-04-15T10:40:42.376Z,995.41
2016-04-15T10:41:42.425Z,995.42
2016-04-15T10:42:42.444Z,995.44
2016-04-15T10:43:42.478Z,995.4
2016-04-15T10:44:42.511Z,995.44
2016-04-15T10:45:42.561Z,995.55
2016-04-15T10:46:42.594Z,995.46
2016-04-15T10:47:42.628Z,995.55
2016-04-15T10:48:42.678Z,995.52
2016-04-15T10:49:42.712Z,995.5
2016-04-15T10:50:42.762Z,995.61
2016-04-15T10:51:42.796Z,995.56
2016-04-15T10:52:42.814Z,995.54
2016-04-15T10:53:42.863Z,995.56
2016-04-15T10:54:42.897Z,995.61
2016-04-15T10:55:42.932Z,995.62
2016-04-15T10:56:42.966Z,995.71
2016-04-15T10:57:43.000Z,995.64
2016-04-15T10:58:43.050Z,995.67
2016-04-15T10:59:43.083Z,995.64
2016-04-15T11:00:43.118Z,995.67
2016-04-15T11:01:43.167Z,995.6
2016-04-15T11:02:43.185Z,995.64
2016-04-15T11:03:43.235Z,995.58
2016-04-15T11:04:43.268Z,995.59
2016-04-15T11:05:43.302Z,995.57
2016-04-15T11:06:43.336Z,995.57
2016-04-15T11:07:43.370Z,995.61
2016-04-15T11:08:43.404Z,995.6
2016-04-15T11:09:43.454Z,995.65
2016-04-15T11:10:43.520Z,995.61
2016-04-15T11:11:43.522Z,995.59
2016-04-15T11:12:43.556Z,995.62
2016-04-15T11:13:43.590Z,995.56
2016-04-15T11:14:43.639Z,995.57
2016-04-15T11:15:43.673Z,995.58
2016-04-15T11:16:43.706Z,995.57
2016-04-15T11:17:43.741Z,995.56
2016-04-15T11:18:43.790Z,995.58
2016-04-15T11:19:43.824Z,995.57
2016-04-15T11:20:43.858Z,995.49
2016-04-15T11:21:43.892Z,995.55
2016-04-15T11:22:43.927Z,995.45
2016-04-15T11:23:43.960Z,995.44
2016-04-15T11:24:43.994Z,995.49
2016-04-15T11:25:44.027Z,995.37
2016-04-15T11:26:44.077Z,995.42
2016-04-15T11:27:44.111Z,995.32
2016-04-15T11:28:44.146Z,995.26
2016-04-15T11:29:44.180Z,995.3
2016-04-15T11:30:44.214Z,995.29
2016-04-15T11:31:44.247Z,995.31
2016-04-15T11:32:44.297Z,995.34
2016-04-15T11:33:44.331Z,995.22
2016-04-15T11:34:44.365Z,995.3
2016-04-15T11:35:44.399Z,995.26
2016-04-15T11:36:44.792Z,995.26
2016-04-15T11:37:44.467Z,995.28
2016-04-15T11:38:44.515Z,995.23
2016-04-15T11:39:44.551Z,995.17
2016-04-15T11:40:44.584Z,995.29
2016-04-15T11:41:44.649Z,995.25
2016-04-15T11:42:44.667Z,995.2
2016-04-15T11:43:44.701Z,995.24
2016-04-15T11:44:44.736Z,995.27
2016-04-15T11:45:44.769Z,995.22
2016-04-15T11:46:44.819Z,995.18
2016-04-15T11:47:44.853Z,995.15
2016-04-15T11:48:44.886Z,995.18
2016-04-15T11:49:44.920Z,995.03
2016-04-15T11:50:45.783Z,995.12
2016-04-15T11:51:45.832Z,995.09
2016-04-15T11:52:45.538Z,995.04
2016-04-15T11:53:45.775Z,995.08
2016-04-15T11:54:45.590Z,995.02
2016-04-15T11:55:45.499Z,994.98
2016-04-15T11:56:45.189Z,994.99
2016-04-15T11:57:45.224Z,995.05
2016-04-15T11:58:45.274Z,995.05
2016-04-15T11:59:45.307Z,994.97
2016-04-15T12:00:45.341Z,994.99
2016-04-15T12:01:45.374Z,994.97
2016-04-15T12:02:45.440Z,994.95
2016-04-15T12:03:45.457Z,994.94
2016-04-15T12:04:45.835Z,994.9
2016-04-15T12:05:45.526Z,994.91
2016-04-15T12:06:45.576Z,994.96
2016-04-15T12:07:45.609Z,994.98
2016-04-15T12:08:45.644Z,994.92
2016-04-15T12:09:45.680Z,994.99
2016-04-15T12:10:45.729Z,995.01
2016-04-15T12:11:45.764Z,994.95
2016-04-15T12:12:45.797Z,995
2016-04-15T12:13:45.847Z,995.01
2016-04-15T12:14:45.864Z,995
2016-04-15T12:15:45.914Z,994.94
2016-04-15T12:16:45.948Z,994.92
2016-04-15T12:17:45.983Z,994.88
2016-04-15T12:18:46.016Z,994.96
2016-04-15T12:19:46.269Z,994.92
2016-04-15T12:20:46.835Z,994.9
2016-04-15T12:21:46.665Z,994.99
2016-04-15T12:22:46.543Z,995.01
2016-04-15T12:23:46.217Z,994.94
2016-04-15T12:24:46.251Z,994.94
2016-04-15T12:25:46.435Z,994.91
2016-04-15T12:26:46.328Z,994.95
2016-04-15T12:27:46.362Z,995.08
2016-04-15T12:28:46.397Z,994.98
2016-04-15T12:29:46.431Z,995.09